KBTR/BTR METAR and TAF weather

Enter ICAO airport designator
Station Type Date Time Source
KBTR METAR 2020/03/29 10:53 UTC NOAA

KBTR 291053Z 04003KT 10SM OVC046 19/13 A3004 RMK AO2 SLP173 T01940133


Station Type Date Time Source
KBTR Decoded METAR 2020/03/29 10:53 UTC NOAA

BATON ROUGE METRO RYAN FIELD, LA, United States (KBTR) 30-32N 91-09W 21M
Mar 29, 2020 - 06:53 AM EDT / 2020.03.29 1053 UTC
Wind: from the NE (040 degrees) at 3 MPH (3 KT):0
Visibility: 10 mile(s):0
Sky conditions: overcast
Temperature: 66.9 F (19.4 C)
Dew Point: 55.9 F (13.3 C)
Relative Humidity: 67%
Pressure (altimeter): 30.04 in. Hg (1017 hPa)
ob: KBTR 291053Z 04003KT 10SM OVC046 19/13 A3004 RMK AO2 SLP173 T01940133
cycle: 11

Station Type Date Time Source
KBTR TAF 2020/03/29 12:27 UTC NOAA

TAF KBTR 291125Z 2912/3012 VRB04KT P6SM OVC040
FM291400 03005KT P6SM SCT030 BKN080
FM300100 VRB04KT P6SM BKN040

Example: see airport list